sensor_id;sensor_type;location;lat;lon;timestamp;pressure;altitude;pressure_sealevel;temperature;humidity
5996;BME280;3026;53.612;7.278;2023-09-07T00:00:15;102110.28;;;21.26;100.00
5996;BME280;3026;53.612;7.278;2023-09-07T00:02:42;102114.53;;;21.22;100.00
5996;BME280;3026;53.612;7.278;2023-09-07T00:05:11;102115.81;;;21.19;100.00
5996;BME280;3026;53.612;7.278;2023-09-07T00:07:39;102111.53;;;21.17;100.00
5996;BME280;3026;53.612;7.278;2023-09-07T00:10:07;102111.94;;;21.14;100.00
5996;BME280;3026;53.612;7.278;2023-09-07T00:12:34;102105.13;;;21.10;100.00
5996;BME280;3026;53.612;7.278;2023-09-07T00:15:05;102111.06;;;21.07;100.00
5996;BME280;3026;53.612;7.278;2023-09-07T00:17:34;102119.19;;;21.02;100.00
5996;BME280;3026;53.612;7.278;2023-09-07T00:20:01;102110.25;;;21.00;100.00
5996;BME280;3026;53.612;7.278;2023-09-07T00:22:35;102112.78;;;20.94;100.00
5996;BME280;3026;53.612;7.278;2023-09-07T00:25:02;102112.34;;;20.91;100.00
5996;BME280;3026;53.612;7.278;2023-09-07T00:27:31;102100.84;;;20.87;100.00
5996;BME280;3026;53.612;7.278;2023-09-07T00:29:58;102109.75;;;20.83;100.00
5996;BME280;3026;53.612;7.278;2023-09-07T00:32:25;102103.78;;;20.79;100.00
5996;BME280;3026;53.612;7.278;2023-09-07T00:34:55;102110.81;;;20.75;100.00
5996;BME280;3026;53.612;7.278;2023-09-07T00:37:22;102108.44;;;20.72;100.00
5996;BME280;3026;53.612;7.278;2023-09-07T00:39:49;102107.81;;;20.70;100.00
5996;BME280;3026;53.612;7.278;2023-09-07T00:42:18;102103.75;;;20.66;100.00
5996;BME280;3026;53.612;7.278;2023-09-07T00:44:45;102102.28;;;20.63;100.00
5996;BME280;3026;53.612;7.278;2023-09-07T00:47:16;102098.19;;;20.59;100.00
5996;BME280;3026;53.612;7.278;2023-09-07T00:49:43;102099.47;;;20.57;100.00
5996;BME280;3026;53.612;7.278;2023-09-07T00:52:13;102100.94;;;20.53;100.00
5996;BME280;3026;53.612;7.278;2023-09-07T00:54:40;102100.31;;;20.51;100.00
5996;BME280;3026;53.612;7.278;2023-09-07T00:57:09;102105.19;;;20.49;100.00
5996;BME280;3026;53.612;7.278;2023-09-07T00:59:38;102101.78;;;20.47;100.00
5996;BME280;3026;53.612;7.278;2023-09-07T01:02:05;102099.44;;;20.44;100.00
5996;BME280;3026;53.612;7.278;2023-09-07T01:04:33;102096.41;;;20.38;100.00
5996;BME280;3026;53.612;7.278;2023-09-07T01:07:05;102099.34;;;20.37;100.00
5996;BME280;3026;53.612;7.278;2023-09-07T01:09:36;102100.84;;;20.33;100.00
5996;BME280;3026;53.612;7.278;2023-09-07T01:12:07;102104.88;;;20.30;100.00
5996;BME280;3026;53.612;7.278;2023-09-07T01:14:36;102099.09;;;20.25;100.00
5996;BME280;3026;53.612;7.278;2023-09-07T01:17:03;102095.47;;;20.25;100.00
5996;BME280;3026;53.612;7.278;2023-09-07T01:19:31;102086.72;;;20.21;100.00
5996;BME280;3026;53.612;7.278;2023-09-07T01:25:23;102086.03;;;20.13;100.00
5996;BME280;3026;53.612;7.278;2023-09-07T01:27:50;102083.47;;;20.11;100.00
5996;BME280;3026;53.612;7.278;2023-09-07T01:30:20;102084.97;;;20.07;100.00
5996;BME280;3026;53.612;7.278;2023-09-07T01:32:47;102084.31;;;20.05;100.00
5996;BME280;3026;53.612;7.278;2023-09-07T01:35:16;102077.47;;;20.01;100.00
5996;BME280;3026;53.612;7.278;2023-09-07T01:37:49;102083.84;;;19.95;100.00
5996;BME280;3026;53.612;7.278;2023-09-07T01:40:16;102084.25;;;19.92;100.00
5996;BME280;3026;53.612;7.278;2023-09-07T01:42:44;102082.94;;;19.88;100.00
5996;BME280;3026;53.612;7.278;2023-09-07T01:45:12;102083.75;;;19.81;100.00
5996;BME280;3026;53.612;7.278;2023-09-07T01:47:38;102082.84;;;19.74;100.00
5996;BME280;3026;53.612;7.278;2023-09-07T01:50:06;102087.09;;;19.70;100.00
5996;BME280;3026;53.612;7.278;2023-09-07T01:52:34;102082.34;;;19.64;100.00
5996;BME280;3026;53.612;7.278;2023-09-07T01:55:01;102084.88;;;19.59;100.00
5996;BME280;3026;53.612;7.278;2023-09-07T01:57:28;102081.81;;;19.54;100.00
5996;BME280;3026;53.612;7.278;2023-09-07T01:59:56;102081.78;;;19.47;100.00
5996;BME280;3026;53.612;7.278;2023-09-07T02:02:24;102091.72;;;19.42;100.00
5996;BME280;3026;53.612;7.278;2023-09-07T02:04:56;102086.38;;;19.34;100.00
5996;BME280;3026;53.612;7.278;2023-09-07T02:07:23;102090.56;;;19.30;100.00
5996;BME280;3026;53.612;7.278;2023-09-07T02:09:50;102086.50;;;19.26;100.00
5996;BME280;3026;53.612;7.278;2023-09-07T02:12:18;102090.69;;;19.21;100.00
5996;BME280;3026;53.612;7.278;2023-09-07T02:14:45;102094.94;;;19.17;100.00
5996;BME280;3026;53.612;7.278;2023-09-07T02:17:13;102088.75;;;19.15;100.00
5996;BME280;3026;53.612;7.278;2023-09-07T02:19:45;102092.97;;;19.11;100.00
5996;BME280;3026;53.612;7.278;2023-09-07T02:22:12;102102.50;;;19.09;100.00
5996;BME280;3026;53.612;7.278;2023-09-07T02:24:39;102093.75;;;19.05;100.00
5996;BME280;3026;53.612;7.278;2023-09-07T02:27:08;102094.16;;;19.02;100.00
5996;BME280;3026;53.612;7.278;2023-09-07T02:29:35;102090.75;;;19.00;100.00
5996;BME280;3026;53.612;7.278;2023-09-07T02:32:03;102095.78;;;18.97;100.00
5996;BME280;3026;53.612;7.278;2023-09-07T02:34:32;102094.09;;;18.95;100.00
5996;BME280;3026;53.612;7.278;2023-09-07T02:37:02;102093.44;;;18.93;100.00
5996;BME280;3026;53.612;7.278;2023-09-07T02:39:29;102095.56;;;18.91;100.00
5996;BME280;3026;53.612;7.278;2023-09-07T02:41:56;102095.94;;;18.88;100.00
5996;BME280;3026;53.612;7.278;2023-09-07T02:44:24;102102.69;;;18.86;100.00
5996;BME280;3026;53.612;7.278;2023-09-07T02:46:51;102093.09;;;18.82;100.00
5996;BME280;3026;53.612;7.278;2023-09-07T02:49:18;102096.94;;;18.81;100.00
5996;BME280;3026;53.612;7.278;2023-09-07T02:51:47;102093.50;;;18.79;100.00
5996;BME280;3026;53.612;7.278;2023-09-07T02:54:15;102092.00;;;18.76;100.00
5996;BME280;3026;53.612;7.278;2023-09-07T02:56:42;102094.75;;;18.76;100.00
5996;BME280;3026;53.612;7.278;2023-09-07T02:59:09;102090.47;;;18.74;100.00
5996;BME280;3026;53.612;7.278;2023-09-07T03:01:38;102093.41;;;18.72;100.00
5996;BME280;3026;53.612;7.278;2023-09-07T03:04:05;102097.44;;;18.70;100.00
5996;BME280;3026;53.612;7.278;2023-09-07T03:06:33;102098.69;;;18.67;100.00
5996;BME280;3026;53.612;7.278;2023-09-07T03:09:02;102097.19;;;18.64;100.00
5996;BME280;3026;53.612;7.278;2023-09-07T03:11:34;102095.81;;;18.60;100.00
5996;BME280;3026;53.612;7.278;2023-09-07T03:14:01;102096.22;;;18.57;100.00
5996;BME280;3026;53.612;7.278;2023-09-07T03:16:31;102106.59;;;18.55;100.00
5996;BME280;3026;53.612;7.278;2023-09-07T03:18:59;102105.94;;;18.53;100.00
5996;BME280;3026;53.612;7.278;2023-09-07T03:21:26;102110.13;;;18.49;100.00
5996;BME280;3026;53.612;7.278;2023-09-07T03:23:55;102103.28;;;18.45;100.00
5996;BME280;3026;53.612;7.278;2023-09-07T03:26:23;102107.09;;;18.44;100.00
5996;BME280;3026;53.612;7.278;2023-09-07T03:28:51;102099.59;;;18.38;100.00
5996;BME280;3026;53.612;7.278;2023-09-07T03:31:18;102100.63;;;18.37;100.00
5996;BME280;3026;53.612;7.278;2023-09-07T03:33:45;102098.28;;;18.34;100.00
5996;BME280;3026;53.612;7.278;2023-09-07T03:36:12;102101.44;;;18.31;100.00
5996;BME280;3026;53.612;7.278;2023-09-07T03:38:40;102104.53;;;18.28;100.00
5996;BME280;3026;53.612;7.278;2023-09-07T03:41:08;102103.22;;;18.24;100.00
5996;BME280;3026;53.612;7.278;2023-09-07T03:43:40;102108.09;;;18.22;100.00
5996;BME280;3026;53.612;7.278;2023-09-07T03:46:08;102105.88;;;18.17;100.00
5996;BME280;3026;53.612;7.278;2023-09-07T03:48:35;102101.63;;;18.15;100.00
5996;BME280;3026;53.612;7.278;2023-09-07T03:51:05;102104.78;;;18.12;100.00
5996;BME280;3026;53.612;7.278;2023-09-07T03:53:33;102107.91;;;18.08;100.00
5996;BME280;3026;53.612;7.278;2023-09-07T03:56:02;102103.66;;;18.06;100.00
5996;BME280;3026;53.612;7.278;2023-09-07T03:58:31;102114.19;;;18.02;100.00
5996;BME280;3026;53.612;7.278;2023-09-07T04:01:00;102107.34;;;17.98;100.00
5996;BME280;3026;53.612;7.278;2023-09-07T04:03:27;102110.31;;;17.97;100.00
5996;BME280;3026;53.612;7.278;2023-09-07T04:05:54;102114.28;;;17.94;100.00
5996;BME280;3026;53.612;7.278;2023-09-07T04:08:21;102110.19;;;17.90;100.00
5996;BME280;3026;53.612;7.278;2023-09-07T04:10:48;102111.44;;;17.88;100.00
5996;BME280;3026;53.612;7.278;2023-09-07T04:13:16;102110.97;;;17.84;100.00
5996;BME280;3026;53.612;7.278;2023-09-07T04:15:43;102111.34;;;17.81;100.00
5996;BME280;3026;53.612;7.278;2023-09-07T04:18:12;102106.19;;;17.78;100.00
5996;BME280;3026;53.612;7.278;2023-09-07T04:20:40;102108.69;;;17.73;100.00
5996;BME280;3026;53.612;7.278;2023-09-07T04:23:09;102106.28;;;17.70;100.00
5996;BME280;3026;53.612;7.278;2023-09-07T04:25:36;102100.25;;;17.66;100.00
5996;BME280;3026;53.612;7.278;2023-09-07T04:28:04;102105.97;;;17.65;100.00
5996;BME280;3026;53.612;7.278;2023-09-07T04:30:32;102099.78;;;17.63;100.00
5996;BME280;3026;53.612;7.278;2023-09-07T04:33:01;102103.78;;;17.60;100.00
5996;BME280;3026;53.612;7.278;2023-09-07T04:35:30;102113.09;;;17.59;100.00
5996;BME280;3026;53.612;7.278;2023-09-07T04:37:57;102107.09;;;17.56;100.00
5996;BME280;3026;53.612;7.278;2023-09-07T04:40:31;102103.00;;;17.52;100.00
5996;BME280;3026;53.612;7.278;2023-09-07T04:42:58;102113.00;;;17.53;100.00
5996;BME280;3026;53.612;7.278;2023-09-07T04:45:25;102107.88;;;17.49;100.00
5996;BME280;3026;53.612;7.278;2023-09-07T04:47:52;102104.25;;;17.49;100.00
5996;BME280;3026;53.612;7.278;2023-09-07T04:50:19;102108.22;;;17.46;100.00
5996;BME280;3026;53.612;7.278;2023-09-07T04:52:48;102114.09;;;17.43;100.00
5996;BME280;3026;53.612;7.278;2023-09-07T04:55:15;102117.72;;;17.44;100.00
5996;BME280;3026;53.612;7.278;2023-09-07T04:57:43;102120.28;;;17.45;100.00
5996;BME280;3026;53.612;7.278;2023-09-07T05:00:13;102119.63;;;17.43;100.00
5996;BME280;3026;53.612;7.278;2023-09-07T05:02:41;102107.94;;;17.41;100.00
5996;BME280;3026;53.612;7.278;2023-09-07T05:05:09;102126.00;;;17.44;100.00
5996;BME280;3026;53.612;7.278;2023-09-07T05:07:36;102121.34;;;17.44;100.00
5996;BME280;3026;53.612;7.278;2023-09-07T05:10:08;102116.69;;;17.45;100.00
5996;BME280;3026;53.612;7.278;2023-09-07T05:12:38;102120.97;;;17.47;100.00
5996;BME280;3026;53.612;7.278;2023-09-07T05:15:09;102118.88;;;17.49;100.00
5996;BME280;3026;53.612;7.278;2023-09-07T05:17:37;102127.81;;;17.52;100.00
5996;BME280;3026;53.612;7.278;2023-09-07T05:20:07;102122.97;;;17.54;100.00
5996;BME280;3026;53.612;7.278;2023-09-07T05:22:34;102123.44;;;17.57;100.00
5996;BME280;3026;53.612;7.278;2023-09-07T05:25:15;102134.28;;;17.59;100.00
5996;BME280;3026;53.612;7.278;2023-09-07T05:27:43;102136.03;;;17.60;100.00
5996;BME280;3026;53.612;7.278;2023-09-07T05:30:11;102139.47;;;17.62;100.00
5996;BME280;3026;53.612;7.278;2023-09-07T05:32:40;102130.13;;;17.63;100.00
5996;BME280;3026;53.612;7.278;2023-09-07T05:35:08;102129.28;;;17.62;100.00
5996;BME280;3026;53.612;7.278;2023-09-07T05:37:39;102120.81;;;17.64;100.00
5996;BME280;3026;53.612;7.278;2023-09-07T05:40:10;102129.75;;;17.66;100.00
5996;BME280;3026;53.612;7.278;2023-09-07T05:42:38;102131.47;;;17.67;100.00
5996;BME280;3026;53.612;7.278;2023-09-07T05:45:07;102131.97;;;17.70;100.00
5996;BME280;3026;53.612;7.278;2023-09-07T05:47:35;102127.31;;;17.71;100.00
5996;BME280;3026;53.612;7.278;2023-09-07T05:50:05;102139.69;;;17.75;100.00
5996;BME280;3026;53.612;7.278;2023-09-07T05:52:33;102132.06;;;17.77;100.00
5996;BME280;3026;53.612;7.278;2023-09-07T05:55:04;102130.84;;;17.79;100.00
5996;BME280;3026;53.612;7.278;2023-09-07T05:57:34;102142.38;;;17.83;100.00
5996;BME280;3026;53.612;7.278;2023-09-07T06:00:06;102134.75;;;17.85;100.00
5996;BME280;3026;53.612;7.278;2023-09-07T06:02:34;102141.59;;;17.89;100.00
5996;BME280;3026;53.612;7.278;2023-09-07T06:05:03;102136.56;;;17.93;100.00
5996;BME280;3026;53.612;7.278;2023-09-07T06:07:31;102133.03;;;17.99;100.00
5996;BME280;3026;53.612;7.278;2023-09-07T06:09:58;102134.16;;;18.04;100.00
5996;BME280;3026;53.612;7.278;2023-09-07T06:12:28;102135.53;;;18.08;100.00
5996;BME280;3026;53.612;7.278;2023-09-07T06:14:59;102145.78;;;18.15;100.00
5996;BME280;3026;53.612;7.278;2023-09-07T06:17:30;102141.22;;;18.22;100.00
5996;BME280;3026;53.612;7.278;2023-09-07T06:19:58;102145.97;;;18.28;100.00
5996;BME280;3026;53.612;7.278;2023-09-07T06:22:25;102149.69;;;18.35;100.00
5996;BME280;3026;53.612;7.278;2023-09-07T06:24:53;102144.91;;;18.44;100.00
5996;BME280;3026;53.612;7.278;2023-09-07T06:27:20;102156.03;;;18.50;100.00
5996;BME280;3026;53.612;7.278;2023-09-07T06:29:48;102154.88;;;18.59;100.00
5996;BME280;3026;53.612;7.278;2023-09-07T06:32:18;102163.09;;;18.68;100.00
5996;BME280;3026;53.612;7.278;2023-09-07T06:34:49;102166.78;;;18.75;100.00
5996;BME280;3026;53.612;7.278;2023-09-07T06:37:18;102172.19;;;18.83;100.00
5996;BME280;3026;53.612;7.278;2023-09-07T06:39:46;102165.91;;;18.89;100.00
5996;BME280;3026;53.612;7.278;2023-09-07T06:42:15;102160.22;;;18.97;100.00
5996;BME280;3026;53.612;7.278;2023-09-07T06:44:42;102165.63;;;19.05;100.00
5996;BME280;3026;53.612;7.278;2023-09-07T06:47:11;102163.16;;;19.10;100.00
5996;BME280;3026;53.612;7.278;2023-09-07T06:49:41;102169.59;;;19.17;100.00
5996;BME280;3026;53.612;7.278;2023-09-07T06:52:08;102172.88;;;19.28;100.00
5996;BME280;3026;53.612;7.278;2023-09-07T06:54:35;102168.94;;;19.37;100.00
5996;BME280;3026;53.612;7.278;2023-09-07T06:57:06;102169.47;;;19.47;100.00
5996;BME280;3026;53.612;7.278;2023-09-07T06:59:35;102172.09;;;19.55;100.00
5996;BME280;3026;53.612;7.278;2023-09-07T07:02:03;102174.53;;;19.65;100.00
5996;BME280;3026;53.612;7.278;2023-09-07T07:04:30;102186.31;;;19.73;100.00
5996;BME280;3026;53.612;7.278;2023-09-07T07:06:59;102185.13;;;19.83;100.00
5996;BME280;3026;53.612;7.278;2023-09-07T07:09:29;102180.28;;;19.91;100.00
5996;BME280;3026;53.612;7.278;2023-09-07T07:11:59;102183.34;;;20.03;100.00
5996;BME280;3026;53.612;7.278;2023-09-07T07:14:27;102179.97;;;20.14;100.00
5996;BME280;3026;53.612;7.278;2023-09-07T07:16:56;102174.72;;;20.26;100.00
5996;BME280;3026;53.612;7.278;2023-09-07T07:19:26;102187.16;;;20.36;100.00
5996;BME280;3026;53.612;7.278;2023-09-07T07:21:56;102182.59;;;20.50;100.00
5996;BME280;3026;53.612;7.278;2023-09-07T07:24:25;102187.31;;;20.63;100.00
5996;BME280;3026;53.612;7.278;2023-09-07T07:26:52;102190.34;;;20.75;100.00
5996;BME280;3026;53.612;7.278;2023-09-07T07:29:20;102189.56;;;20.87;100.00
5996;BME280;3026;53.612;7.278;2023-09-07T07:31:50;102189.59;;;21.01;100.00
5996;BME280;3026;53.612;7.278;2023-09-07T07:34:21;102187.47;;;21.16;100.00
5996;BME280;3026;53.612;7.278;2023-09-07T07:36:48;102189.66;;;21.27;100.00
5996;BME280;3026;53.612;7.278;2023-09-07T07:39:17;102185.84;;;21.41;100.00
5996;BME280;3026;53.612;7.278;2023-09-07T07:41:48;102185.88;;;21.54;100.00
5996;BME280;3026;53.612;7.278;2023-09-07T07:44:15;102189.28;;;21.70;100.00
5996;BME280;3026;53.612;7.278;2023-09-07T07:46:42;102193.53;;;21.85;100.00
5996;BME280;3026;53.612;7.278;2023-09-07T07:49:10;102193.31;;;22.00;100.00
5996;BME280;3026;53.612;7.278;2023-09-07T07:51:37;102181.56;;;22.18;100.00
5996;BME280;3026;53.612;7.278;2023-09-07T07:54:06;102192.19;;;22.41;100.00
5996;BME280;3026;53.612;7.278;2023-09-07T07:56:34;102182.31;;;22.58;100.00
5996;BME280;3026;53.612;7.278;2023-09-07T07:59:05;102182.19;;;22.78;100.00
5996;BME280;3026;53.612;7.278;2023-09-07T08:01:32;102178.50;;;22.97;100.00
5996;BME280;3026;53.612;7.278;2023-09-07T08:03:59;102188.00;;;23.15;100.00
5996;BME280;3026;53.612;7.278;2023-09-07T08:06:27;102185.09;;;23.35;100.00
5996;BME280;3026;53.612;7.278;2023-09-07T08:08:54;102176.22;;;23.51;100.00
5996;BME280;3026;53.612;7.278;2023-09-07T08:11:22;102171.34;;;23.71;100.00
5996;BME280;3026;53.612;7.278;2023-09-07T08:13:49;102174.19;;;23.90;100.00
5996;BME280;3026;53.612;7.278;2023-09-07T08:16:18;102182.13;;;24.11;100.00
5996;BME280;3026;53.612;7.278;2023-09-07T08:18:45;102174.22;;;24.26;100.00
5996;BME280;3026;53.612;7.278;2023-09-07T08:21:14;102176.22;;;24.44;100.00
5996;BME280;3026;53.612;7.278;2023-09-07T08:23:42;102177.50;;;24.60;100.00
5996;BME280;3026;53.612;7.278;2023-09-07T08:26:10;102179.28;;;24.72;100.00
5996;BME280;3026;53.612;7.278;2023-09-07T08:28:39;102179.94;;;24.86;100.00
5996;BME280;3026;53.612;7.278;2023-09-07T08:31:06;102177.81;;;25.00;100.00
5996;BME280;3026;53.612;7.278;2023-09-07T08:33:35;102188.59;;;25.15;100.00
5996;BME280;3026;53.612;7.278;2023-09-07T08:36:06;102193.50;;;25.31;100.00
5996;BME280;3026;53.612;7.278;2023-09-07T08:38:34;102189.78;;;25.49;100.00
5996;BME280;3026;53.612;7.278;2023-09-07T08:41:02;102190.66;;;25.61;100.00
5996;BME280;3026;53.612;7.278;2023-09-07T08:43:33;102187.66;;;25.74;100.00
5996;BME280;3026;53.612;7.278;2023-09-07T08:46:06;102192.91;;;25.94;100.00
5996;BME280;3026;53.612;7.278;2023-09-07T08:48:38;102193.38;;;26.14;100.00
5996;BME280;3026;53.612;7.278;2023-09-07T08:51:09;102197.16;;;26.32;100.00
5996;BME280;3026;53.612;7.278;2023-09-07T08:53:37;102199.09;;;26.43;100.00
5996;BME280;3026;53.612;7.278;2023-09-07T08:56:06;102192.25;;;26.51;100.00
5996;BME280;3026;53.612;7.278;2023-09-07T08:58:35;102191.16;;;26.63;100.00
5996;BME280;3026;53.612;7.278;2023-09-07T09:01:05;102182.38;;;26.71;100.00
5996;BME280;3026;53.612;7.278;2023-09-07T09:03:34;102187.19;;;26.88;100.00
5996;BME280;3026;53.612;7.278;2023-09-07T09:06:04;102189.56;;;26.96;100.00
5996;BME280;3026;53.612;7.278;2023-09-07T09:08:42;102181.28;;;27.01;100.00
5996;BME280;3026;53.612;7.278;2023-09-07T09:11:11;102180.41;;;27.12;100.00
5996;BME280;3026;53.612;7.278;2023-09-07T09:13:40;102193.25;;;27.25;100.00
5996;BME280;3026;53.612;7.278;2023-09-07T09:16:09;102192.78;;;27.45;100.00
5996;BME280;3026;53.612;7.278;2023-09-07T09:18:36;102181.72;;;27.55;100.00
5996;BME280;3026;53.612;7.278;2023-09-07T09:21:04;102174.28;;;27.60;100.00
5996;BME280;3026;53.612;7.278;2023-09-07T09:23:34;102185.19;;;27.74;99.91
5996;BME280;3026;53.612;7.278;2023-09-07T09:26:04;102182.22;;;27.80;98.67
5996;BME280;3026;53.612;7.278;2023-09-07T09:28:31;102182.81;;;27.82;98.01
5996;BME280;3026;53.612;7.278;2023-09-07T09:30:59;102175.72;;;27.97;98.33
5996;BME280;3026;53.612;7.278;2023-09-07T09:33:26;102177.16;;;28.16;95.53
5996;BME280;3026;53.612;7.278;2023-09-07T09:35:54;102180.09;;;28.26;93.84
5996;BME280;3026;53.612;7.278;2023-09-07T09:38:23;102179.81;;;28.44;94.43
5996;BME280;3026;53.612;7.278;2023-09-07T09:40:51;102181.13;;;28.59;92.09
5996;BME280;3026;53.612;7.278;2023-09-07T09:43:19;102164.63;;;28.62;91.83
5996;BME280;3026;53.612;7.278;2023-09-07T09:45:48;102172.56;;;28.70;92.38
5996;BME280;3026;53.612;7.278;2023-09-07T09:48:18;102178.66;;;28.84;90.12
5996;BME280;3026;53.612;7.278;2023-09-07T09:50:51;102167.56;;;28.94;90.07
5996;BME280;3026;53.612;7.278;2023-09-07T09:53:19;102161.72;;;29.01;88.72
5996;BME280;3026;53.612;7.278;2023-09-07T09:55:52;102164.00;;;29.04;87.65
5996;BME280;3026;53.612;7.278;2023-09-07T09:58:20;102161.56;;;29.13;87.03
5996;BME280;3026;53.612;7.278;2023-09-07T10:00:49;102158.75;;;29.13;86.87
5996;BME280;3026;53.612;7.278;2023-09-07T10:03:20;102149.75;;;29.11;86.98
5996;BME280;3026;53.612;7.278;2023-09-07T10:05:52;102148.91;;;29.10;86.82
5996;BME280;3026;53.612;7.278;2023-09-07T10:08:21;102152.56;;;29.11;86.29
5996;BME280;3026;53.612;7.278;2023-09-07T10:10:53;102145.84;;;29.12;86.73
5996;BME280;3026;53.612;7.278;2023-09-07T10:13:30;102150.41;;;29.18;86.46
5996;BME280;3026;53.612;7.278;2023-09-07T10:16:00;102153.25;;;29.23;85.49
5996;BME280;3026;53.612;7.278;2023-09-07T10:18:34;102150.47;;;29.28;83.56
5996;BME280;3026;53.612;7.278;2023-09-07T10:21:01;102147.41;;;29.29;83.48
5996;BME280;3026;53.612;7.278;2023-09-07T10:23:36;102145.50;;;29.35;83.71
5996;BME280;3026;53.612;7.278;2023-09-07T10:26:12;102141.03;;;29.39;83.32
5996;BME280;3026;53.612;7.278;2023-09-07T10:28:41;102132.66;;;29.44;84.15
5996;BME280;3026;53.612;7.278;2023-09-07T10:31:14;102140.19;;;29.39;83.57
5996;BME280;3026;53.612;7.278;2023-09-07T10:33:41;102138.28;;;29.44;84.23
5996;BME280;3026;53.612;7.278;2023-09-07T10:36:20;102128.78;;;29.50;84.80
5996;BME280;3026;53.612;7.278;2023-09-07T10:38:48;102128.38;;;29.69;84.40
5996;BME280;3026;53.612;7.278;2023-09-07T10:41:19;102125.06;;;29.77;83.77
5996;BME280;3026;53.612;7.278;2023-09-07T10:43:48;102132.47;;;29.88;83.58
5996;BME280;3026;53.612;7.278;2023-09-07T10:46:15;102127.97;;;29.92;82.78
5996;BME280;3026;53.612;7.278;2023-09-07T10:48:45;102126.88;;;29.98;82.78
5996;BME280;3026;53.612;7.278;2023-09-07T10:51:12;102123.09;;;30.14;84.20
5996;BME280;3026;53.612;7.278;2023-09-07T10:53:40;102118.97;;;30.37;84.79
5996;BME280;3026;53.612;7.278;2023-09-07T10:56:07;102117.59;;;30.50;84.47
5996;BME280;3026;53.612;7.278;2023-09-07T10:58:36;102115.06;;;30.54;82.75
5996;BME280;3026;53.612;7.278;2023-09-07T11:01:07;102116.81;;;30.60;80.70
5996;BME280;3026;53.612;7.278;2023-09-07T11:03:36;102111.19;;;30.60;77.47
5996;BME280;3026;53.612;7.278;2023-09-07T11:06:09;102112.25;;;30.54;73.81
5996;BME280;3026;53.612;7.278;2023-09-07T11:08:37;102114.22;;;30.48;75.23
5996;BME280;3026;53.612;7.278;2023-09-07T11:11:05;102115.34;;;30.52;74.75
5996;BME280;3026;53.612;7.278;2023-09-07T11:13:32;102111.41;;;30.53;74.75
5996;BME280;3026;53.612;7.278;2023-09-07T11:16:01;102114.81;;;30.55;74.33
5996;BME280;3026;53.612;7.278;2023-09-07T11:18:29;102104.66;;;30.49;73.97
5996;BME280;3026;53.612;7.278;2023-09-07T11:20:56;102106.06;;;30.46;74.40
5996;BME280;3026;53.612;7.278;2023-09-07T11:23:25;102099.59;;;30.51;73.94
5996;BME280;3026;53.612;7.278;2023-09-07T11:25:53;102099.03;;;30.49;73.64
5996;BME280;3026;53.612;7.278;2023-09-07T11:28:20;102098.75;;;30.50;74.62
5996;BME280;3026;53.612;7.278;2023-09-07T11:30:51;102100.16;;;30.53;74.02
5996;BME280;3026;53.612;7.278;2023-09-07T11:33:21;102096.78;;;30.51;73.64
5996;BME280;3026;53.612;7.278;2023-09-07T11:35:48;102094.53;;;30.53;72.94
5996;BME280;3026;53.612;7.278;2023-09-07T11:38:17;102097.38;;;30.58;73.28
5996;BME280;3026;53.612;7.278;2023-09-07T11:40:45;102088.94;;;30.58;73.10
5996;BME280;3026;53.612;7.278;2023-09-07T11:43:12;102090.06;;;30.57;72.94
5996;BME280;3026;53.612;7.278;2023-09-07T11:45:39;102081.59;;;30.52;73.58
5996;BME280;3026;53.612;7.278;2023-09-07T11:48:06;102090.31;;;30.50;72.48
5996;BME280;3026;53.612;7.278;2023-09-07T11:50:36;102082.72;;;30.46;72.77
5996;BME280;3026;53.612;7.278;2023-09-07T11:53:03;102082.72;;;30.46;72.58
5996;BME280;3026;53.612;7.278;2023-09-07T11:55:32;102075.34;;;30.40;72.06
5996;BME280;3026;53.612;7.278;2023-09-07T11:58:00;102086.03;;;30.38;71.50
5996;BME280;3026;53.612;7.278;2023-09-07T12:00:27;102074.50;;;30.34;71.57
5996;BME280;3026;53.612;7.278;2023-09-07T12:02:56;102074.22;;;30.36;72.04
5996;BME280;3026;53.612;7.278;2023-09-07T12:05:23;102069.72;;;30.35;71.17
5996;BME280;3026;53.612;7.278;2023-09-07T12:07:52;102071.94;;;30.33;71.04
5996;BME280;3026;53.612;7.278;2023-09-07T12:10:19;102061.25;;;30.30;70.60
5996;BME280;3026;53.612;7.278;2023-09-07T12:12:46;102062.09;;;30.25;71.41
5996;BME280;3026;53.612;7.278;2023-09-07T12:15:14;102062.66;;;30.27;70.70
5996;BME280;3026;53.612;7.278;2023-09-07T12:17:41;102062.88;;;30.20;70.18
5996;BME280;3026;53.612;7.278;2023-09-07T12:20:09;102061.19;;;30.19;69.51
5996;BME280;3026;53.612;7.278;2023-09-07T12:22:36;102050.22;;;30.18;69.94
5996;BME280;3026;53.612;7.278;2023-09-07T12:25:06;102058.38;;;30.14;69.85
5996;BME280;3026;53.612;7.278;2023-09-07T12:27:33;102056.69;;;30.13;71.79
5996;BME280;3026;53.612;7.278;2023-09-07T12:30:03;102047.69;;;30.21;73.04
5996;BME280;3026;53.612;7.278;2023-09-07T12:32:35;102058.44;;;30.25;72.27
5996;BME280;3026;53.612;7.278;2023-09-07T12:35:02;102056.19;;;30.27;71.76
5996;BME280;3026;53.612;7.278;2023-09-07T12:37:35;102050.00;;;30.30;72.50
5996;BME280;3026;53.612;7.278;2023-09-07T12:40:06;102049.44;;;30.33;72.44
5996;BME280;3026;53.612;7.278;2023-09-07T12:42:39;102049.44;;;30.33;71.64
5996;BME280;3026;53.612;7.278;2023-09-07T12:45:07;102054.22;;;30.32;71.23
5996;BME280;3026;53.612;7.278;2023-09-07T12:47:34;102050.00;;;30.30;70.82
5996;BME280;3026;53.612;7.278;2023-09-07T12:50:02;102043.22;;;30.26;70.99
5996;BME280;3026;53.612;7.278;2023-09-07T12:52:30;102044.09;;;30.26;71.37
5996;BME280;3026;53.612;7.278;2023-09-07T12:54:58;102036.44;;;30.21;72.02
5996;BME280;3026;53.612;7.278;2023-09-07T12:57:26;102042.06;;;30.16;71.50
5996;BME280;3026;53.612;7.278;2023-09-07T12:59:54;102033.06;;;30.14;71.22
5996;BME280;3026;53.612;7.278;2023-09-07T13:02:21;102036.44;;;30.16;72.02
5996;BME280;3026;53.612;7.278;2023-09-07T13:04:48;102033.91;;;30.20;72.88
5996;BME280;3026;53.612;7.278;2023-09-07T13:07:17;102035.59;;;30.21;72.83
5996;BME280;3026;53.612;7.278;2023-09-07T13:09:44;102039.25;;;30.21;72.17
5996;BME280;3026;53.612;7.278;2023-09-07T13:12:11;102029.41;;;30.19;71.61